Cuaca Aktual Bandara Mali

Waktu Pengamatan : 2024-04-21 18:30:00 WITA


NIGHT-CLOUDY
Berawan
Suhu Udara
29 °C
Titik Embun
25 °C

Tekanan Udara 1008 hPa
Jarak Pandang 8.0 km

Barat
Arah Angin
dari Barat
Kec. Angin
3.7 km/jam
METAR Terkini : METAR WATM 211000Z 26002KT 9999 FEW019 SCT090 29/25 Q1008 RERA=